createdAt,value
2022-11-10T00:03:15.036Z,47.35
2022-11-10T00:06:03.735Z,45.60
2022-11-10T00:08:49.845Z,49.45
2022-11-10T00:11:35.999Z,44.88
2022-11-10T00:14:40.157Z,44.22
2022-11-10T00:17:25.993Z,42.33
2022-11-10T00:20:12.962Z,46.28
2022-11-10T00:22:59.301Z,44.83
2022-11-10T00:25:44.911Z,46.33
2022-11-10T00:28:32.317Z,38.50
2022-11-10T00:31:18.132Z,46.40
2022-11-10T00:34:03.962Z,42.67
2022-11-10T00:36:49.899Z,41.40
2022-11-10T00:39:35.955Z,41.00
2022-11-10T00:42:21.835Z,44.03
2022-11-10T00:45:08.138Z,43.67
2022-11-10T00:47:53.874Z,39.83
2022-11-10T00:50:39.666Z,44.45
2022-11-10T00:53:25.532Z,45.08
2022-11-10T00:56:11.377Z,43.53
2022-11-10T00:58:57.327Z,44.80
2022-11-10T01:01:43.000Z,43.22
2022-11-10T01:04:28.746Z,47.58
2022-11-10T01:07:14.977Z,44.15
2022-11-10T01:10:00.806Z,46.08
2022-11-10T01:12:46.807Z,46.63
2022-11-10T01:15:33.040Z,52.10
2022-11-10T01:18:18.791Z,46.47
2022-11-10T01:21:05.484Z,48.53
2022-11-10T01:23:51.188Z,51.20
2022-11-10T01:26:37.122Z,47.85
2022-11-10T01:29:23.158Z,45.15
2022-11-10T01:32:08.777Z,54.28
2022-11-10T01:34:54.505Z,48.33
2022-11-10T01:37:40.946Z,49.45
2022-11-10T01:40:27.433Z,51.90
2022-11-10T01:43:13.610Z,50.85
2022-11-10T01:46:08.026Z,47.00
2022-11-10T01:48:59.005Z,49.05
2022-11-10T01:51:48.715Z,47.80
2022-11-10T01:54:38.923Z,51.58
2022-11-10T01:57:24.703Z,46.20
2022-11-10T02:00:11.567Z,47.65
2022-11-10T02:03:29.647Z,44.03
2022-11-10T02:06:17.136Z,49.97
2022-11-10T02:09:03.235Z,50.42
2022-11-10T02:11:53.304Z,46.33
2022-11-10T02:17:24.969Z,46.92
2022-11-10T02:20:14.286Z,46.75
2022-11-10T02:23:11.115Z,47.45
2022-11-10T02:25:58.308Z,47.60
2022-11-10T02:28:44.527Z,43.13
2022-11-10T02:31:30.574Z,47.65
2022-11-10T02:34:16.735Z,46.15
2022-11-10T02:37:02.623Z,47.80
2022-11-10T02:39:48.585Z,49.47
2022-11-10T02:42:34.694Z,50.10
2022-11-10T02:45:20.652Z,48.42
2022-11-10T02:48:06.607Z,48.72
2022-11-10T02:50:52.644Z,44.17
2022-11-10T02:53:38.556Z,45.60
2022-11-10T02:56:24.595Z,43.05
2022-11-10T02:59:10.217Z,43.47
2022-11-10T03:01:56.084Z,42.28
2022-11-10T03:04:42.385Z,44.05
2022-11-10T03:07:28.092Z,47.60
2022-11-10T03:10:13.980Z,42.85
2022-11-10T03:13:02.718Z,44.55
2022-11-10T03:15:49.005Z,47.53
2022-11-10T03:18:35.156Z,45.40
2022-11-10T03:21:21.303Z,44.13
2022-11-10T03:24:07.299Z,47.10
2022-11-10T03:26:52.921Z,42.65
2022-11-10T03:29:38.772Z,51.08
2022-11-10T03:32:24.480Z,48.60
2022-11-10T03:35:11.297Z,46.42
2022-11-10T03:37:56.806Z,43.80
2022-11-10T03:41:16.917Z,44.05
2022-11-10T03:43:49.528Z,42.20
2022-11-10T03:46:35.241Z,42.03
2022-11-10T03:49:21.006Z,43.13
2022-11-10T03:52:06.901Z,43.53
2022-11-10T03:54:52.631Z,41.33
2022-11-10T03:57:38.468Z,44.45
2022-11-10T04:00:25.117Z,44.05
2022-11-10T04:03:11.312Z,46.30
2022-11-10T04:06:16.060Z,42.20
2022-11-10T04:09:02.587Z,43.92
2022-11-10T04:12:06.882Z,47.70
2022-11-10T04:15:11.470Z,41.30
2022-11-10T04:18:20.252Z,45.38
2022-11-10T04:21:06.366Z,42.78
2022-11-10T04:23:52.305Z,43.95
2022-11-10T04:26:39.121Z,41.22
2022-11-10T04:29:25.125Z,43.85
2022-11-10T04:32:11.214Z,41.13
2022-11-10T04:34:56.831Z,39.53
2022-11-10T04:37:42.839Z,41.38
2022-11-10T04:40:28.960Z,42.67
2022-11-10T04:43:14.400Z,40.22
2022-11-10T04:46:02.684Z,40.72
2022-11-10T04:48:49.077Z,42.35
2022-11-10T04:51:37.755Z,46.33
2022-11-10T04:54:24.059Z,47.50
2022-11-10T04:57:09.875Z,41.33
2022-11-10T04:59:55.709Z,37.42
2022-11-10T05:02:41.714Z,45.38
2022-11-10T05:05:27.490Z,43.50
2022-11-10T05:08:13.318Z,41.88
2022-11-10T05:10:59.452Z,40.58
2022-11-10T05:13:46.059Z,42.55
2022-11-10T05:16:31.981Z,46.03
2022-11-10T05:19:19.076Z,39.72
2022-11-10T05:22:06.204Z,41.25
2022-11-10T05:24:52.102Z,43.38
2022-11-10T05:27:38.143Z,35.00
2022-11-10T05:30:23.850Z,39.88
2022-11-10T05:33:10.226Z,44.08
2022-11-10T05:35:55.894Z,42.03
2022-11-10T05:38:43.658Z,35.13
2022-11-10T05:41:30.072Z,38.00
2022-11-10T05:44:16.218Z,33.92
2022-11-10T05:47:02.274Z,33.63
2022-11-10T05:49:48.356Z,38.47
2022-11-10T05:52:34.605Z,38.35
2022-11-10T05:55:23.597Z,33.33
2022-11-10T05:58:09.625Z,32.90
2022-11-10T06:00:55.206Z,36.05
2022-11-10T06:03:41.319Z,35.30
2022-11-10T06:06:27.456Z,34.40
2022-11-10T06:09:13.330Z,28.92
2022-11-10T06:11:59.621Z,30.80
2022-11-10T06:14:45.554Z,29.98
2022-11-10T06:17:31.510Z,27.55
2022-11-10T06:20:18.237Z,26.38
2022-11-10T06:23:14.217Z,31.75
2022-11-10T06:26:00.153Z,24.02
2022-11-10T06:28:46.042Z,27.30
2022-11-10T06:31:31.646Z,26.33
2022-11-10T06:34:17.507Z,20.27
2022-11-10T06:37:03.159Z,21.27
2022-11-10T06:39:49.039Z,22.60
2022-11-10T06:42:35.606Z,24.20
2022-11-10T06:45:22.244Z,20.98
2022-11-10T06:48:12.505Z,20.33
2022-11-10T06:51:02.241Z,16.85
2022-11-10T06:53:48.256Z,19.27
2022-11-10T06:56:35.185Z,17.67
2022-11-10T06:59:20.989Z,16.75
2022-11-10T07:02:10.954Z,17.58
2022-11-10T07:04:56.741Z,15.48
2022-11-10T07:07:42.359Z,16.65
2022-11-10T07:10:27.915Z,13.55
2022-11-10T07:13:13.624Z,15.30
2022-11-10T07:15:59.256Z,16.02
2022-11-10T07:18:48.963Z,14.98
2022-11-10T07:21:34.877Z,17.70
2022-11-10T07:24:21.110Z,13.45
2022-11-10T07:27:08.111Z,15.88
2022-11-10T07:29:53.990Z,15.88
2022-11-10T07:32:39.968Z,13.48
2022-11-10T07:35:28.614Z,15.23
2022-11-10T07:38:15.607Z,12.65
2022-11-10T07:41:01.463Z,13.90
2022-11-10T07:43:47.197Z,15.23
2022-11-10T07:46:33.231Z,16.33
2022-11-10T07:49:18.957Z,10.45
2022-11-10T07:52:05.089Z,13.15
2022-11-10T07:54:51.031Z,14.10
2022-11-10T07:57:36.708Z,14.50
2022-11-10T08:00:22.454Z,11.48
2022-11-10T08:03:12.262Z,10.23
2022-11-10T08:05:58.076Z,13.75
2022-11-10T08:08:43.980Z,13.18
2022-11-10T08:11:29.947Z,8.65
2022-11-10T08:14:16.013Z,10.32
2022-11-10T08:17:02.595Z,10.73
2022-11-10T08:19:49.314Z,13.40
2022-11-10T08:22:36.634Z,11.52
2022-11-10T08:25:23.324Z,11.50
2022-11-10T08:28:13.264Z,11.32
2022-11-10T08:31:05.678Z,8.43
2022-11-10T08:33:53.634Z,8.80
2022-11-10T08:36:40.845Z,13.98
2022-11-10T08:39:38.588Z,13.60
2022-11-10T08:42:25.946Z,12.27
2022-11-10T08:45:13.696Z,9.10
2022-11-10T08:48:06.983Z,11.20
2022-11-10T08:50:53.083Z,11.00
2022-11-10T08:53:39.385Z,9.88
2022-11-10T08:56:25.486Z,13.75
2022-11-10T08:59:12.234Z,11.50
2022-11-10T09:02:00.206Z,11.60
2022-11-10T09:04:48.693Z,10.50
2022-11-10T09:07:48.035Z,11.25
2022-11-10T09:10:37.215Z,13.43
2022-11-10T09:13:29.083Z,12.38
2022-11-10T09:16:17.374Z,12.23
2022-11-10T09:19:03.824Z,12.55
2022-11-10T09:21:50.185Z,12.70
2022-11-10T09:24:37.135Z,15.27
2022-11-10T09:27:23.424Z,7.63
2022-11-10T09:30:16.304Z,11.55
2022-11-10T09:33:04.565Z,9.63
2022-11-10T09:35:51.421Z,10.82
2022-11-10T09:38:37.987Z,13.93
2022-11-10T09:41:24.594Z,12.18
2022-11-10T09:44:37.753Z,10.63
2022-11-10T09:47:55.583Z,9.70
2022-11-10T09:51:05.136Z,11.10
2022-11-10T09:53:57.667Z,11.75
2022-11-10T09:56:44.273Z,9.25
2022-11-10T09:59:33.456Z,10.82
2022-11-10T10:02:25.035Z,15.85
2022-11-10T10:05:35.586Z,7.47
2022-11-10T10:11:48.125Z,11.65
2022-11-10T10:14:56.934Z,8.93
2022-11-10T10:17:54.236Z,9.98
2022-11-10T10:21:30.695Z,9.30
2022-11-10T10:24:22.276Z,8.48
2022-11-10T10:27:15.624Z,9.82
2022-11-10T10:30:03.006Z,10.70
2022-11-10T10:32:52.185Z,9.18
2022-11-10T10:35:42.054Z,7.67
2022-11-10T10:38:37.124Z,12.27
2022-11-10T10:41:25.648Z,7.43
2022-11-10T10:44:18.235Z,10.30
2022-11-10T10:47:05.390Z,10.13
2022-11-10T10:49:51.695Z,11.20
2022-11-10T10:52:37.888Z,17.63
2022-11-10T10:55:30.734Z,9.38
2022-11-10T10:58:39.984Z,8.73
2022-11-10T11:01:33.750Z,9.48
2022-11-10T11:04:36.782Z,9.20
2022-11-10T11:07:25.916Z,10.30
2022-11-10T11:10:25.255Z,9.23
2022-11-10T11:13:13.944Z,11.15
2022-11-10T11:16:03.295Z,11.40
2022-11-10T11:18:49.695Z,8.43
2022-11-10T11:21:44.534Z,12.45
2022-11-10T11:25:10.418Z,6.97
2022-11-10T11:28:05.746Z,11.55
2022-11-10T11:30:55.035Z,8.20
2022-11-10T11:33:56.066Z,10.47
2022-11-10T11:37:05.361Z,8.05
2022-11-10T11:40:20.893Z,8.77
2022-11-10T11:43:45.495Z,11.98
2022-11-10T11:46:48.900Z,10.50
2022-11-10T11:49:41.570Z,11.57
2022-11-10T11:52:46.337Z,8.98
2022-11-10T11:56:02.514Z,8.68
2022-11-10T11:59:16.465Z,10.45
2022-11-10T12:02:31.084Z,5.78
2022-11-10T12:05:33.463Z,10.77
2022-11-10T12:08:36.135Z,11.93
2022-11-10T12:11:42.964Z,7.07
2022-11-10T12:14:56.843Z,10.48
2022-11-10T12:17:54.364Z,10.40
2022-11-10T12:21:07.474Z,8.10
2022-11-10T12:24:10.817Z,9.43
2022-11-10T12:27:03.444Z,10.27
2022-11-10T12:29:56.413Z,11.05
2022-11-10T12:32:54.223Z,9.20
2022-11-10T12:35:44.762Z,7.28
2022-11-10T12:38:42.855Z,6.00
2022-11-10T12:41:36.014Z,8.85
2022-11-10T12:44:40.393Z,6.88
2022-11-10T12:47:32.534Z,8.25
2022-11-10T12:50:46.244Z,11.27
2022-11-10T12:53:41.800Z,6.72
2022-11-10T12:56:52.984Z,8.98
2022-11-10T12:59:42.432Z,5.35
2022-11-10T13:02:38.862Z,9.55
2022-11-10T13:05:45.695Z,11.15
2022-11-10T13:08:44.304Z,6.30
2022-11-10T13:11:37.980Z,6.72
2022-11-10T13:14:29.104Z,5.22
2022-11-10T13:17:28.004Z,7.57
2022-11-10T13:20:47.592Z,8.60
2022-11-10T13:23:56.252Z,5.40
2022-11-10T13:26:45.403Z,6.47
2022-11-10T13:29:43.887Z,7.50
2022-11-10T13:32:35.828Z,6.05
2022-11-10T13:35:31.264Z,10.32
2022-11-10T13:38:44.984Z,13.57
2022-11-10T13:41:35.143Z,8.15
2022-11-10T13:44:30.483Z,5.38
2022-11-10T13:47:38.453Z,11.10
2022-11-10T13:50:36.895Z,10.15
2022-11-10T13:53:52.474Z,7.88
2022-11-10T13:56:57.686Z,8.73
2022-11-10T13:59:57.917Z,11.10
2022-11-10T14:02:56.669Z,8.90
2022-11-10T14:06:05.405Z,6.63
2022-11-10T14:08:57.202Z,9.25
2022-11-10T14:11:50.119Z,10.05
2022-11-10T14:15:01.192Z,9.05
2022-11-10T14:17:56.625Z,11.75
2022-11-10T14:20:46.073Z,9.20
2022-11-10T14:23:32.783Z,8.40
2022-11-10T14:26:49.444Z,8.02
2022-11-10T14:29:41.005Z,7.47
2022-11-10T14:32:28.223Z,10.80
2022-11-10T14:35:25.473Z,7.13
2022-11-10T14:38:24.596Z,8.43
2022-11-10T14:41:19.065Z,9.60
2022-11-10T14:44:16.014Z,9.70
2022-11-10T14:47:24.726Z,7.90
2022-11-10T14:50:14.174Z,7.07
2022-11-10T14:53:08.714Z,13.77
2022-11-10T14:55:56.134Z,10.77
2022-11-10T14:58:44.955Z,9.10
2022-11-10T15:01:35.734Z,10.27
2022-11-10T15:04:32.164Z,9.25
2022-11-10T15:07:19.629Z,10.50
2022-11-10T15:10:20.017Z,7.78
2022-11-10T15:13:18.853Z,12.65
2022-11-10T15:16:26.296Z,9.82
2022-11-10T15:19:56.854Z,11.80
2022-11-10T15:22:43.823Z,9.63
2022-11-10T15:25:38.545Z,11.80
2022-11-10T15:28:36.275Z,14.00
2022-11-10T15:31:28.839Z,16.63
2022-11-10T15:34:42.694Z,14.98
2022-11-10T15:37:31.744Z,13.23
2022-11-10T15:40:32.531Z,12.43
2022-11-10T15:43:27.957Z,11.95
2022-11-10T15:46:23.346Z,13.25
2022-11-10T15:49:21.223Z,10.45
2022-11-10T15:52:20.545Z,11.13
2022-11-10T15:55:07.101Z,11.57
2022-11-10T15:57:53.505Z,10.43
2022-11-10T16:00:40.355Z,10.25
2022-11-10T16:03:28.256Z,12.65
2022-11-10T16:06:16.030Z,10.07
2022-11-10T16:09:02.015Z,12.27
2022-11-10T16:11:48.684Z,8.60
2022-11-10T16:14:35.203Z,11.60
2022-11-10T16:17:21.904Z,16.05
2022-11-10T16:20:15.285Z,10.63
2022-11-10T16:23:01.559Z,11.85
2022-11-10T16:25:50.945Z,10.15
2022-11-10T16:28:37.794Z,12.30
2022-11-10T16:31:24.424Z,16.70
2022-11-10T16:34:15.295Z,12.00
2022-11-10T16:37:03.366Z,13.25
2022-11-10T16:39:49.794Z,15.93
2022-11-10T16:42:36.404Z,11.23
2022-11-10T16:45:30.834Z,10.88
2022-11-10T16:48:27.764Z,13.43
2022-11-10T16:51:14.945Z,15.35
2022-11-10T16:54:01.784Z,18.70
2022-11-10T16:56:48.207Z,15.50
2022-11-10T16:59:34.707Z,17.60
2022-11-10T17:02:33.934Z,16.20
2022-11-10T17:05:20.205Z,18.63
2022-11-10T17:08:06.756Z,15.80
2022-11-10T17:10:53.175Z,18.00
2022-11-10T17:13:39.768Z,15.70
2022-11-10T17:16:30.365Z,19.60
2022-11-10T17:19:26.216Z,15.82
2022-11-10T17:22:17.744Z,15.32
2022-11-10T17:25:04.696Z,15.52
2022-11-10T17:27:51.225Z,16.98
2022-11-10T17:30:38.617Z,16.38
2022-11-10T17:33:25.630Z,14.05
2022-11-10T17:36:19.874Z,15.23
2022-11-10T17:39:06.258Z,14.63
2022-11-10T17:41:52.415Z,13.40
2022-11-10T17:44:39.056Z,17.63
2022-11-10T17:47:25.716Z,19.45
2022-11-10T17:50:12.445Z,12.98
2022-11-10T17:53:03.048Z,17.73
2022-11-10T17:58:35.905Z,20.80
2022-11-10T18:01:23.345Z,16.05
2022-11-10T18:04:14.135Z,17.73
2022-11-10T18:07:00.801Z,16.00
2022-11-10T18:09:47.906Z,17.40
2022-11-10T18:12:35.215Z,22.83
2022-11-10T18:15:21.655Z,15.38
2022-11-10T18:18:11.926Z,17.00
2022-11-10T18:20:58.527Z,21.67
2022-11-10T18:23:44.894Z,18.55
2022-11-10T18:26:31.367Z,17.63
2022-11-10T18:29:17.877Z,20.55
2022-11-10T18:32:04.225Z,19.58
2022-11-10T18:34:50.505Z,17.13
2022-11-10T18:37:39.295Z,23.75
2022-11-10T18:40:25.885Z,21.10
2022-11-10T18:43:11.977Z,17.83
2022-11-10T18:45:58.384Z,19.30
2022-11-10T18:48:48.595Z,18.02
2022-11-10T18:51:35.044Z,20.58
2022-11-10T18:54:21.275Z,19.13
2022-11-10T18:57:07.665Z,15.93
2022-11-10T18:59:54.375Z,19.55
2022-11-10T19:02:43.139Z,18.20
2022-11-10T19:05:30.494Z,17.75
2022-11-10T19:08:16.454Z,17.08
2022-11-10T19:11:07.534Z,17.65
2022-11-10T19:13:54.464Z,20.88
2022-11-10T19:16:41.335Z,21.58
2022-11-10T19:19:27.857Z,18.80
2022-11-10T19:22:14.276Z,22.35
2022-11-10T19:25:08.197Z,22.77
2022-11-10T19:27:55.265Z,21.35
2022-11-10T19:30:41.449Z,22.48
2022-11-10T19:33:33.764Z,15.75
2022-11-10T19:36:26.925Z,22.42
2022-11-10T19:39:13.634Z,15.38
2022-11-10T19:42:00.396Z,18.65
2022-11-10T19:44:46.495Z,20.85
2022-11-10T19:47:33.275Z,18.13
2022-11-10T19:50:19.784Z,19.02
2022-11-10T19:53:05.978Z,16.23
2022-11-10T19:55:52.284Z,17.42
2022-11-10T19:58:39.846Z,17.88
2022-11-10T20:01:26.921Z,14.57
2022-11-10T20:04:14.715Z,14.45
2022-11-10T20:07:19.939Z,18.33
2022-11-10T20:10:07.074Z,18.63
2022-11-10T20:12:53.674Z,14.43
2022-11-10T20:15:41.547Z,20.70
2022-11-10T20:18:27.906Z,18.38
2022-11-10T20:21:16.644Z,16.35
2022-11-10T20:24:02.917Z,21.08
2022-11-10T20:26:50.984Z,20.35
2022-11-10T20:29:37.536Z,19.38
2022-11-10T20:32:24.155Z,20.88
2022-11-10T20:35:10.553Z,21.73
2022-11-10T20:37:57.084Z,23.13
2022-11-10T20:40:44.986Z,17.23
2022-11-10T20:43:35.144Z,17.92
2022-11-10T20:46:48.287Z,19.02
2022-11-10T20:49:30.184Z,18.83
2022-11-10T20:52:16.937Z,21.10
2022-11-10T20:55:04.028Z,19.48
2022-11-10T20:57:50.525Z,15.30
2022-11-10T21:00:36.464Z,13.57
2022-11-10T21:03:23.941Z,16.05
2022-11-10T21:06:11.763Z,17.40
2022-11-10T21:08:58.163Z,14.90
2022-11-10T21:12:02.963Z,16.20
2022-11-10T21:14:49.094Z,18.38
2022-11-10T21:17:35.044Z,21.65
2022-11-10T21:20:21.313Z,19.77
2022-11-10T21:23:08.035Z,20.55
2022-11-10T21:25:59.633Z,18.95
2022-11-10T21:28:46.033Z,20.08
2022-11-10T21:31:32.553Z,16.85
2022-11-10T21:34:18.983Z,22.02
2022-11-10T21:37:05.233Z,23.70
2022-11-10T21:39:51.486Z,19.52
2022-11-10T21:42:37.514Z,23.75
2022-11-10T21:45:24.123Z,26.38
2022-11-10T21:48:10.502Z,17.10
2022-11-10T21:51:02.034Z,22.40
2022-11-10T21:53:50.067Z,21.27
2022-11-10T21:56:37.244Z,25.95
2022-11-10T21:59:23.534Z,24.30
2022-11-10T22:02:11.162Z,19.23
2022-11-10T22:04:58.092Z,19.10
2022-11-10T22:07:44.816Z,19.67
2022-11-10T22:10:49.970Z,22.17
2022-11-10T22:13:54.362Z,23.58
2022-11-10T22:17:09.934Z,23.38
2022-11-10T22:19:56.734Z,19.75
2022-11-10T22:22:43.652Z,25.77
2022-11-10T22:25:30.852Z,29.83
2022-11-10T22:28:20.593Z,28.85
2022-11-10T22:31:08.974Z,27.48
2022-11-10T22:33:55.202Z,26.85
2022-11-10T22:36:41.154Z,26.45
2022-11-10T22:39:47.091Z,26.55
2022-11-10T22:42:51.701Z,22.58
2022-11-10T22:45:38.432Z,33.75
2022-11-10T22:48:27.335Z,22.45
2022-11-10T22:51:13.513Z,30.80
2022-11-10T22:54:00.363Z,30.52
2022-11-10T22:56:48.503Z,20.15
2022-11-10T22:59:34.931Z,23.13
2022-11-10T23:02:20.721Z,20.45
2022-11-10T23:05:07.391Z,23.20
2022-11-10T23:07:56.680Z,27.23
2022-11-10T23:10:42.912Z,23.48
2022-11-10T23:13:29.378Z,23.23
2022-11-10T23:16:37.411Z,23.58
2022-11-10T23:19:23.498Z,20.77
2022-11-10T23:22:09.507Z,23.05
2022-11-10T23:24:57.380Z,22.92
2022-11-10T23:27:43.640Z,18.60
2022-11-10T23:30:29.767Z,18.98
2022-11-10T23:33:16.086Z,19.95
2022-11-10T23:36:02.337Z,15.32
2022-11-10T23:38:49.110Z,18.25
2022-11-10T23:41:35.001Z,19.55
2022-11-10T23:44:20.991Z,19.80
2022-11-10T23:47:06.813Z,23.88
2022-11-10T23:49:52.992Z,20.52
2022-11-10T23:52:38.528Z,21.48
2022-11-10T23:55:24.491Z,19.60
2022-11-10T23:58:10.504Z,22.70
